Time;durP1;ratioP1;P1;durP2;ratioP2;P2;SDS_P1;SDS_P2;PMS_P1;PMS_P2;Temp;Humidity;BMP_temperature;BMP_pressure;BME280_temperature;BME280_humidity;BME280_pressure;Samples;Min_cycle;Max_cycle;Signal;HPM_P1;HPM_P2
2023/09/30 00:01:01;;;;;;;4.10;1.20;;;13.30;99.90;;;;;;5001880;28;20077;-78
2023/09/30 00:03:27;;;;;;;2.72;0.95;;;13.30;99.90;;;;;;5001356;28;20242;-78
2023/09/30 00:05:53;;;;;;;3.65;1.10;;;13.30;99.90;;;;;;5000574;28;20076;-78
2023/09/30 00:08:19;;;;;;;5.38;1.38;;;13.30;99.90;;;;;;4984683;28;20050;-78
2023/09/30 00:10:46;;;;;;;2.53;1.25;;;13.30;99.90;;;;;;5003267;28;20121;-78
2023/09/30 00:13:12;;;;;;;7.45;1.67;;;13.30;99.90;;;;;;5000775;28;20504;-78
2023/09/30 00:15:38;;;;;;;7.05;1.65;;;13.30;99.90;;;;;;5003059;28;20050;-78
2023/09/30 00:18:05;;;;;;;2.53;1.20;;;13.30;99.90;;;;;;5002164;28;20048;-78
2023/09/30 00:20:30;;;;;;;2.67;0.90;;;13.30;99.90;;;;;;4982947;28;20488;-78
2023/09/30 00:22:56;;;;;;;1.83;0.93;;;13.30;99.90;;;;;;5002188;28;20049;-80
2023/09/30 00:25:22;;;;;;;7.38;1.67;;;13.20;99.90;;;;;;4984718;28;20506;-78
2023/09/30 00:27:48;;;;;;;6.97;1.40;;;13.20;99.90;;;;;;5002630;28;20133;-78
2023/09/30 00:30:14;;;;;;;3.45;1.83;;;13.20;99.90;;;;;;5001173;28;20495;-79
2023/09/30 00:32:39;;;;;;;2.50;1.55;;;13.20;99.90;;;;;;5001210;28;20037;-79
2023/09/30 00:35:09;;;;;;;2.75;1.20;;;13.20;99.90;;;;;;5000916;28;20041;-79
2023/09/30 00:37:34;;;;;;;4.22;2.03;;;13.10;99.90;;;;;;5001607;28;20408;-78
2023/09/30 00:40:00;;;;;;;2.63;1.02;;;13.10;99.90;;;;;;5001492;28;20041;-78
2023/09/30 00:42:26;;;;;;;3.03;1.63;;;13.10;99.90;;;;;;4984725;28;20439;-79
2023/09/30 00:44:52;;;;;;;2.67;1.30;;;13.10;99.90;;;;;;4985099;28;20065;-78
2023/09/30 00:47:20;;;;;;;3.17;1.35;;;13.10;99.90;;;;;;4984962;28;20063;-78
2023/09/30 00:49:45;;;;;;;9.05;1.83;;;13.10;99.90;;;;;;5001862;28;20034;-78
2023/09/30 00:52:12;;;;;;;5.38;1.55;;;13.10;99.90;;;;;;5001026;28;20042;-78
2023/09/30 00:54:39;;;;;;;1.77;1.50;;;13.10;99.90;;;;;;5001609;28;20061;-78
2023/09/30 00:57:05;;;;;;;4.45;1.40;;;13.10;99.90;;;;;;5003192;28;20046;-78
2023/09/30 00:59:32;;;;;;;2.25;1.23;;;13.10;99.90;;;;;;4984856;28;20109;-78
2023/09/30 01:02:00;;;;;;;3.72;1.40;;;13.10;99.90;;;;;;5000587;28;20058;-79
2023/09/30 01:04:27;;;;;;;7.93;1.60;;;13.20;99.90;;;;;;5000833;28;20360;-79
2023/09/30 01:06:53;;;;;;;9.40;1.58;;;13.20;99.90;;;;;;5000020;28;20057;-79
2023/09/30 01:09:20;;;;;;;3.25;1.30;;;13.20;99.90;;;;;;5001719;28;20034;-78
2023/09/30 01:11:45;;;;;;;3.05;1.80;;;13.20;99.90;;;;;;5001090;28;20045;-79
2023/09/30 01:14:28;;;;;;;1.67;0.98;;;13.30;99.90;;;;;;5000152;28;20484;-79
2023/09/30 01:16:53;;;;;;;;;;;13.30;99.90;;;;;;5002961;28;20038;-79
2023/09/30 01:19:19;;;;;;;2.05;1.10;;;13.30;99.90;;;;;;5000538;28;19937;-79
2023/09/30 01:21:48;;;;;;;3.28;0.88;;;13.30;99.90;;;;;;5001398;28;20042;-79
2023/09/30 01:24:15;;;;;;;5.78;1.75;;;13.30;99.90;;;;;;5000522;28;20077;-79
2023/09/30 01:26:42;;;;;;;3.97;1.73;;;13.30;99.90;;;;;;5002244;28;20053;-79
2023/09/30 01:29:11;;;;;;;8.32;1.52;;;13.30;99.90;;;;;;5002521;28;20052;-78
2023/09/30 01:31:38;;;;;;;3.67;1.65;;;13.30;99.90;;;;;;5001535;28;20077;-79
2023/09/30 01:34:05;;;;;;;4.10;1.45;;;13.30;99.90;;;;;;5005130;28;20046;-78
2023/09/30 01:36:30;;;;;;;3.05;1.45;;;13.30;99.90;;;;;;5003867;28;20042;-79
2023/09/30 01:38:56;;;;;;;8.27;1.52;;;13.30;99.90;;;;;;5005835;28;20053;-79
2023/09/30 01:41:22;;;;;;;7.03;2.65;;;13.30;99.90;;;;;;5004079;28;20045;-79
2023/09/30 01:43:48;;;;;;;7.47;2.13;;;13.30;99.90;;;;;;5004725;28;20073;-79
2023/09/30 01:46:14;;;;;;;8.60;2.20;;;13.30;99.90;;;;;;5003577;28;20042;-79
2023/09/30 01:48:39;;;;;;;2.60;1.35;;;13.30;99.90;;;;;;5005623;28;20708;-79
2023/09/30 01:51:08;;;;;;;5.28;1.30;;;13.30;99.90;;;;;;5004028;28;20489;-78
2023/09/30 01:53:33;;;;;;;3.35;1.10;;;13.30;99.90;;;;;;5004213;28;20726;-79
2023/09/30 01:55:59;;;;;;;2.88;1.38;;;13.40;99.90;;;;;;4987790;28;20083;-79
2023/09/30 01:58:25;;;;;;;2.85;1.20;;;13.40;99.90;;;;;;5005317;28;20042;-79
2023/09/30 02:00:52;;;;;;;6.07;2.15;;;13.40;99.90;;;;;;5005122;28;20049;-79
2023/09/30 02:03:17;;;;;;;5.63;1.85;;;13.40;99.90;;;;;;5003916;28;20042;-79
2023/09/30 02:05:43;;;;;;;3.72;1.42;;;13.40;99.90;;;;;;5003387;28;20417;-79
2023/09/30 02:08:09;;;;;;;3.45;1.13;;;13.40;99.90;;;;;;5003383;28;20511;-79
2023/09/30 02:10:35;;;;;;;2.97;1.30;;;13.40;99.90;;;;;;5004127;28;20041;-79
2023/09/30 02:13:01;;;;;;;3.33;1.80;;;13.40;99.90;;;;;;5003440;28;20512;-79
2023/09/30 02:15:27;;;;;;;2.35;1.10;;;13.40;99.90;;;;;;5003281;28;20123;-78
2023/09/30 02:17:53;;;;;;;4.15;1.60;;;13.40;99.90;;;;;;5005288;28;20081;-79
2023/09/30 02:20:19;;;;;;;5.60;1.95;;;13.50;99.90;;;;;;5002717;28;20531;-79
2023/09/30 02:22:45;;;;;;;1.73;0.88;;;13.40;99.90;;;;;;4972235;28;20059;-79
2023/09/30 02:25:12;;;;;;;7.57;1.92;;;13.50;99.90;;;;;;5003356;28;20745;-78
2023/09/30 02:27:41;;;;;;;6.97;2.20;;;13.40;99.90;;;;;;5004327;28;20095;-78
2023/09/30 02:30:10;;;;;;;3.70;1.75;;;13.50;99.90;;;;;;5004528;28;20049;-79
2023/09/30 02:32:36;;;;;;;2.97;1.58;;;13.50;99.90;;;;;;5003948;28;20492;-79
2023/09/30 02:35:04;;;;;;;5.25;1.27;;;13.50;99.90;;;;;;5002421;28;20100;-79
2023/09/30 02:37:35;;;;;;;3.75;0.98;;;13.50;99.90;;;;;;5004999;28;20092;-79
2023/09/30 02:40:03;;;;;;;2.10;1.23;;;13.50;99.90;;;;;;5003348;28;20138;-79
2023/09/30 02:42:29;;;;;;;2.47;1.23;;;13.40;99.90;;;;;;4986532;28;20125;-79
2023/09/30 02:44:54;;;;;;;2.38;1.10;;;13.50;99.90;;;;;;5003274;28;20125;-79
2023/09/30 02:47:20;;;;;;;5.22;1.42;;;13.50;99.90;;;;;;5004116;28;20049;-79
2023/09/30 02:49:46;;;;;;;4.55;1.50;;;13.50;99.90;;;;;;5003811;28;20301;-79
2023/09/30 02:52:12;;;;;;;6.80;2.05;;;13.40;99.90;;;;;;5003238;28;20097;-79
2023/09/30 02:54:38;;;;;;;4.38;1.45;;;13.50;99.90;;;;;;5003446;28;20034;-79
2023/09/30 02:57:03;;;;;;;6.72;1.40;;;13.40;99.90;;;;;;5002918;28;20049;-78
2023/09/30 02:59:29;;;;;;;6.22;1.20;;;13.40;99.90;;;;;;4986566;28;20397;-78
2023/09/30 03:01:56;;;;;;;4.70;1.40;;;13.40;99.90;;;;;;5002555;28;20103;-79
2023/09/30 03:04:25;;;;;;;2.72;1.02;;;13.40;99.90;;;;;;5002786;28;20452;-79
2023/09/30 03:06:51;;;;;;;1.85;1.23;;;13.40;99.90;;;;;;5002857;28;20085;-79
2023/09/30 03:09:17;;;;;;;3.95;1.63;;;13.40;99.90;;;;;;5002484;28;20050;-79
2023/09/30 03:11:43;;;;;;;3.88;1.55;;;13.40;99.90;;;;;;5003822;28;20029;-79
2023/09/30 03:14:11;;;;;;;12.00;1.50;;;13.40;99.90;;;;;;5002434;28;20088;-78
2023/09/30 03:16:38;;;;;;;3.63;1.75;;;13.40;99.90;;;;;;5003502;28;20053;-79
2023/09/30 03:19:08;;;;;;;2.60;1.00;;;13.40;99.90;;;;;;4986492;28;20096;-79
2023/09/30 03:21:35;;;;;;;1.83;1.20;;;13.30;99.90;;;;;;4985521;28;20038;-79
2023/09/30 03:24:04;;;;;;;2.83;1.45;;;13.30;99.90;;;;;;5002895;28;20784;-79
2023/09/30 03:26:31;;;;;;;2.47;1.30;;;13.30;99.90;;;;;;5002013;28;20145;-79
2023/09/30 03:28:57;;;;;;;3.88;0.80;;;13.30;99.90;;;;;;4983514;28;20408;-78
2023/09/30 03:31:22;;;;;;;5.53;1.80;;;13.30;99.90;;;;;;4982914;28;20034;-79
2023/09/30 03:33:51;;;;;;;5.38;1.60;;;13.20;99.90;;;;;;4985209;28;20056;-78
2023/09/30 03:36:18;;;;;;;1.88;1.23;;;13.30;99.90;;;;;;5002749;28;20535;-79
2023/09/30 03:38:44;;;;;;;5.60;1.73;;;13.20;99.90;;;;;;5002666;28;20659;-79
2023/09/30 03:41:13;;;;;;;4.95;1.52;;;13.20;99.90;;;;;;5002411;28;20131;-79
2023/09/30 03:43:40;;;;;;;2.95;1.92;;;13.10;99.90;;;;;;5002492;28;20057;-79
2023/09/30 03:46:07;;;;;;;1.50;1.15;;;13.10;99.90;;;;;;5002749;28;20060;-79
2023/09/30 03:48:34;;;;;;;2.70;1.27;;;13.10;99.90;;;;;;5001733;28;20041;-79
2023/09/30 03:51:14;;;;;;;2.75;1.38;;;13.10;99.90;;;;;;5001485;28;20540;-78
2023/09/30 03:53:43;;;;;;;3.42;1.10;;;13.00;99.90;;;;;;5003320;28;20053;-79
2023/09/30 03:56:11;;;;;;;4.65;1.60;;;13.00;99.90;;;;;;5000259;28;20045;-79
2023/09/30 03:58:41;;;;;;;6.60;1.70;;;13.00;99.90;;;;;;5002814;28;20408;-78
2023/09/30 04:01:07;;;;;;;1.55;1.10;;;13.00;99.90;;;;;;5002299;28;20085;-78
2023/09/30 04:03:34;;;;;;;3.30;1.25;;;13.00;99.90;;;;;;4984887;28;20088;-79
2023/09/30 04:06:02;;;;;;;2.38;1.13;;;13.00;99.90;;;;;;5002206;28;20122;-79
2023/09/30 04:08:28;;;;;;;4.45;1.17;;;12.90;99.90;;;;;;4999183;28;20120;-78
2023/09/30 04:10:54;;;;;;;1.33;0.75;;;12.90;99.90;;;;;;5001430;28;20511;-79
2023/09/30 04:13:21;;;;;;;5.00;1.35;;;12.90;99.90;;;;;;5001382;28;20041;-79
2023/09/30 04:15:49;;;;;;;4.15;1.50;;;12.90;99.90;;;;;;5002685;28;20049;-79
2023/09/30 04:18:14;;;;;;;1.80;1.35;;;12.90;99.90;;;;;;5000994;28;20061;-79
2023/09/30 04:20:40;;;;;;;3.33;1.88;;;12.90;99.90;;;;;;5000481;28;20038;-78
2023/09/30 04:23:09;;;;;;;2.53;1.15;;;12.90;99.90;;;;;;5002400;28;20540;-78
2023/09/30 04:25:35;;;;;;;2.53;1.92;;;12.90;99.90;;;;;;5001735;28;20046;-79
2023/09/30 04:28:02;;;;;;;4.30;1.58;;;12.90;99.90;;;;;;4985228;28;20413;-78
2023/09/30 04:30:29;;;;;;;2.70;2.20;;;12.90;99.90;;;;;;5000657;28;20571;-79
2023/09/30 04:32:55;;;;;;;2.63;1.40;;;12.90;99.90;;;;;;4975481;28;20090;-78
2023/09/30 04:35:21;;;;;;;3.38;1.00;;;12.90;99.90;;;;;;4964632;28;20639;-79
2023/09/30 04:37:47;;;;;;;3.97;1.35;;;12.90;99.90;;;;;;4971524;28;20049;-79
2023/09/30 04:40:15;;;;;;;7.65;1.48;;;12.80;99.90;;;;;;5000709;28;20416;-78
2023/09/30 04:42:44;;;;;;;3.30;1.30;;;12.90;99.90;;;;;;5002248;28;20038;-78
2023/09/30 04:45:11;;;;;;;6.32;1.67;;;12.80;99.90;;;;;;5000716;28;20046;-79
2023/09/30 04:47:38;;;;;;;3.45;1.65;;;12.80;99.90;;;;;;5001918;28;20050;-80
2023/09/30 04:50:08;;;;;;;3.20;1.58;;;12.80;99.90;;;;;;5002253;28;20046;-78
2023/09/30 04:52:34;;;;;;;5.72;1.92;;;12.80;99.90;;;;;;5002807;28;20583;-79
2023/09/30 04:55:01;;;;;;;5.22;1.42;;;12.80;99.90;;;;;;5001212;28;20069;-79
2023/09/30 04:57:27;;;;;;;1.20;1.05;;;12.80;99.90;;;;;;5002322;28;20073;-78
2023/09/30 04:59:53;;;;;;;7.53;2.08;;;12.70;99.90;;;;;;5000583;28;20477;-79
2023/09/30 05:02:18;;;;;;;3.33;1.05;;;12.60;99.90;;;;;;5000602;28;20402;-77
2023/09/30 05:04:44;;;;;;;5.45;1.50;;;12.60;99.90;;;;;;5000461;28;20149;-77
2023/09/30 05:07:10;;;;;;;3.80;1.50;;;12.60;99.90;;;;;;5001129;28;20052;-78
2023/09/30 05:09:36;;;;;;;3.70;1.05;;;12.50;99.90;;;;;;5006382;28;20034;-77
2023/09/30 05:12:04;;;;;;;8.77;1.88;;;12.50;99.90;;;;;;5004948;28;20046;-77
2023/09/30 05:14:30;;;;;;;2.83;1.10;;;12.50;99.90;;;;;;5004402;28;20050;-77
2023/09/30 05:16:56;;;;;;;3.95;1.10;;;12.50;99.90;;;;;;5004781;28;20058;-77
2023/09/30 05:19:22;;;;;;;5.63;1.42;;;12.40;99.90;;;;;;5004785;28;20050;-77
2023/09/30 05:21:48;;;;;;;8.70;1.35;;;12.40;99.90;;;;;;5006062;28;20053;-77
2023/09/30 05:24:14;;;;;;;3.80;1.55;;;12.40;99.90;;;;;;5004516;28;20060;-78
2023/09/30 05:26:40;;;;;;;2.60;1.33;;;12.40;99.90;;;;;;4988140;28;20377;-77
2023/09/30 05:29:07;;;;;;;1.67;1.08;;;12.30;99.90;;;;;;5004997;28;20053;-77
2023/09/30 05:31:32;;;;;;;1.30;1.10;;;12.30;99.90;;;;;;5004393;28;20046;-77
2023/09/30 05:33:58;;;;;;;2.42;1.52;;;12.30;99.90;;;;;;5002930;28;20377;-77
2023/09/30 05:36:24;;;;;;;2.50;1.15;;;12.30;99.90;;;;;;4987395;28;20448;-77
2023/09/30 05:38:50;;;;;;;2.75;1.10;;;12.30;99.90;;;;;;4972156;28;20045;-77
2023/09/30 05:41:15;;;;;;;3.30;1.35;;;12.20;99.90;;;;;;5005212;28;20045;-77
2023/09/30 05:43:43;;;;;;;2.00;1.15;;;12.30;99.90;;;;;;5005637;28;20105;-78
2023/09/30 05:46:09;;;;;;;3.97;1.30;;;12.30;99.90;;;;;;5005277;28;20054;-78
2023/09/30 05:48:34;;;;;;;5.15;1.10;;;12.30;99.90;;;;;;5004562;28;20048;-77
2023/09/30 05:51:01;;;;;;;2.42;1.38;;;12.30;99.90;;;;;;5003615;28;20396;-77
2023/09/30 05:53:28;;;;;;;1.95;1.05;;;12.20;99.90;;;;;;5005173;28;20766;-77
2023/09/30 05:55:53;;;;;;;1.83;1.08;;;12.20;99.90;;;;;;5003876;28;20519;-77
2023/09/30 05:58:19;;;;;;;3.50;1.10;;;12.20;99.90;;;;;;5003943;28;20046;-77
2023/09/30 06:00:45;;;;;;;3.28;1.10;;;12.20;99.90;;;;;;5003567;28;20461;-78
2023/09/30 06:03:10;;;;;;;1.92;0.95;;;12.20;99.90;;;;;;5003471;28;20048;-78
2023/09/30 06:05:42;;;;;;;1.17;1.00;;;12.20;99.90;;;;;;5004607;28;20044;-77
2023/09/30 06:08:13;;;;;;;2.35;1.15;;;12.20;99.90;;;;;;4986613;28;20400;-77
2023/09/30 06:10:42;;;;;;;4.55;1.27;;;12.20;99.90;;;;;;4985630;28;20046;-78
2023/09/30 06:13:09;;;;;;;1.77;1.45;;;12.20;99.90;;;;;;4985617;28;20081;-77
2023/09/30 06:15:40;;;;;;;2.85;1.20;;;12.10;99.90;;;;;;4982401;28;20055;-77
2023/09/30 06:18:06;;;;;;;3.53;1.88;;;12.20;99.90;;;;;;4983014;28;20080;-77
2023/09/30 06:20:35;;;;;;;5.85;1.40;;;12.10;99.90;;;;;;4982114;28;20556;-77
2023/09/30 06:23:01;;;;;;;2.45;1.50;;;12.00;99.90;;;;;;4965479;28;20049;-77
2023/09/30 06:25:27;;;;;;;4.53;1.38;;;12.10;99.90;;;;;;4983545;28;20739;-77
2023/09/30 06:27:54;;;;;;;6.55;1.20;;;12.10;99.90;;;;;;4983098;28;20468;-77
2023/09/30 06:30:20;;;;;;;4.60;1.38;;;12.10;99.90;;;;;;4981581;28;20401;-77
2023/09/30 06:32:47;;;;;;;3.20;1.45;;;12.10;99.90;;;;;;4983068;28;20034;-77
2023/09/30 06:35:13;;;;;;;4.25;1.38;;;12.10;99.90;;;;;;4980311;28;20129;-77
2023/09/30 06:37:40;;;;;;;6.22;1.65;;;12.10;99.90;;;;;;4982820;28;20141;-78
2023/09/30 06:40:08;;;;;;;2.45;1.23;;;12.10;99.90;;;;;;4982206;28;20132;-78
2023/09/30 06:42:35;;;;;;;3.90;1.23;;;12.10;99.90;;;;;;4965597;28;20100;-77
2023/09/30 06:45:02;;;;;;;5.15;1.30;;;12.20;99.90;;;;;;4983167;28;20092;-77
2023/09/30 06:47:27;;;;;;;4.03;1.67;;;12.20;99.90;;;;;;4982579;28;20061;-77
2023/09/30 06:49:53;;;;;;;4.40;1.73;;;12.30;99.90;;;;;;4980700;28;20129;-78
2023/09/30 06:52:19;;;;;;;3.45;1.35;;;12.30;99.90;;;;;;4982391;28;20620;-78
2023/09/30 06:54:45;;;;;;;5.35;1.50;;;12.30;99.90;;;;;;4981619;28;20078;-78
2023/09/30 06:57:11;;;;;;;6.32;2.05;;;12.30;99.90;;;;;;4981438;28;20610;-77
2023/09/30 06:59:37;;;;;;;2.13;1.38;;;12.30;99.90;;;;;;4981719;28;20120;-77
2023/09/30 07:02:03;;;;;;;9.85;1.92;;;12.40;99.90;;;;;;4982487;28;20409;-77
2023/09/30 07:04:29;;;;;;;4.00;1.13;;;12.40;99.90;;;;;;4980162;28;20042;-77
2023/09/30 07:06:55;;;;;;;3.15;1.10;;;12.40;99.90;;;;;;4987681;28;20038;-78
2023/09/30 07:09:21;;;;;;;7.55;2.00;;;12.40;99.90;;;;;;4991494;28;20068;-77
2023/09/30 07:11:46;;;;;;;4.45;1.85;;;12.50;99.90;;;;;;4989554;28;20046;-78
2023/09/30 07:14:12;;;;;;;4.38;1.65;;;12.50;99.90;;;;;;4991638;28;20054;-77
2023/09/30 07:16:39;;;;;;;2.15;1.75;;;12.50;99.90;;;;;;4990587;28;20097;-77
2023/09/30 07:19:05;;;;;;;4.82;1.88;;;12.60;99.90;;;;;;4980072;28;20493;-77
2023/09/30 07:21:30;;;;;;;4.93;2.00;;;12.70;99.90;;;;;;4984415;28;20107;-77
2023/09/30 07:23:56;;;;;;;4.05;2.72;;;12.70;99.90;;;;;;4999528;28;20096;-78
2023/09/30 07:26:25;;;;;;;3.40;1.90;;;12.80;99.90;;;;;;4979053;28;20199;-77
2023/09/30 07:28:53;;;;;;;5.63;2.72;;;12.80;99.90;;;;;;4989429;28;20509;-77
2023/09/30 07:31:19;;;;;;;7.47;2.00;;;12.90;99.90;;;;;;5001543;28;20707;-77
2023/09/30 07:33:45;;;;;;;3.80;2.20;;;12.90;99.90;;;;;;4993313;28;20056;-77
2023/09/30 07:36:13;;;;;;;3.50;2.00;;;12.90;99.90;;;;;;4974118;28;20041;-77
2023/09/30 07:38:38;;;;;;;6.68;2.00;;;13.00;99.90;;;;;;4999653;28;20049;-78
2023/09/30 07:41:05;;;;;;;5.90;2.05;;;13.00;99.90;;;;;;5001513;28;20042;-78
2023/09/30 07:43:30;;;;;;;4.97;1.92;;;13.10;99.90;;;;;;4983183;28;20349;-77
2023/09/30 07:45:56;;;;;;;10.77;2.42;;;13.10;99.90;;;;;;4983572;28;20251;-77
2023/09/30 07:48:22;;;;;;;5.88;2.67;;;13.20;99.90;;;;;;4999790;28;20545;-77
2023/09/30 07:50:48;;;;;;;7.15;2.45;;;13.20;99.90;;;;;;4999004;28;20046;-77
2023/09/30 07:53:13;;;;;;;4.78;2.03;;;13.20;99.90;;;;;;4999531;28;20038;-77
2023/09/30 07:55:39;;;;;;;4.03;1.50;;;13.20;99.90;;;;;;5001128;28;20034;-78
2023/09/30 07:58:07;;;;;;;3.22;1.40;;;13.30;99.90;;;;;;5000371;28;20053;-77
2023/09/30 08:00:33;;;;;;;4.35;1.80;;;13.30;99.90;;;;;;5000633;28;20548;-78
2023/09/30 08:03:00;;;;;;;5.10;1.60;;;13.40;99.90;;;;;;5002947;28;20107;-77
2023/09/30 08:05:26;;;;;;;4.25;1.73;;;13.40;99.90;;;;;;5001571;28;20489;-77
2023/09/30 08:07:52;;;;;;;5.18;1.45;;;13.50;99.90;;;;;;5000531;28;20037;-78
2023/09/30 08:10:18;;;;;;;7.13;1.52;;;13.60;99.90;;;;;;5002832;28;20104;-78
2023/09/30 08:12:48;;;;;;;1.90;1.70;;;13.60;99.90;;;;;;5001765;28;20045;-78
2023/09/30 08:15:14;;;;;;;4.95;2.25;;;13.60;99.90;;;;;;5001163;28;20133;-78
2023/09/30 08:17:40;;;;;;;2.67;1.20;;;13.70;99.90;;;;;;5002888;28;20129;-78
2023/09/30 08:20:06;;;;;;;6.65;2.47;;;13.70;99.90;;;;;;5001261;28;20030;-78
2023/09/30 08:22:32;;;;;;;7.43;1.70;;;13.80;99.90;;;;;;5000873;28;20042;-78
2023/09/30 08:24:58;;;;;;;7.57;1.80;;;13.90;99.90;;;;;;5001494;28;20759;-78
2023/09/30 08:27:24;;;;;;;4.20;2.13;;;14.00;99.90;;;;;;5002613;28;20547;-78
2023/09/30 08:29:50;;;;;;;5.80;1.98;;;14.00;99.90;;;;;;5000594;28;20128;-77
2023/09/30 08:32:15;;;;;;;2.97;1.67;;;14.10;99.90;;;;;;5000888;28;20073;-78
2023/09/30 08:34:41;;;;;;;6.90;2.78;;;14.10;99.90;;;;;;4983626;28;20424;-78
2023/09/30 08:37:07;;;;;;;4.25;1.85;;;14.20;99.90;;;;;;5002735;28;20049;-77
2023/09/30 08:39:37;;;;;;;5.55;1.83;;;14.20;99.90;;;;;;5000880;28;20266;-78
2023/09/30 08:42:05;;;;;;;3.35;1.85;;;14.30;99.90;;;;;;4983862;28;20404;-78
2023/09/30 08:44:31;;;;;;;6.78;1.52;;;14.40;99.90;;;;;;4984808;28;20846;-78
2023/09/30 08:46:57;;;;;;;6.65;1.48;;;14.50;99.90;;;;;;5000900;28;20085;-76
2023/09/30 08:49:25;;;;;;;4.50;1.60;;;14.50;99.90;;;;;;4997546;28;20045;-76
2023/09/30 08:51:51;;;;;;;5.60;1.60;;;14.60;99.90;;;;;;4984486;28;20045;-76
2023/09/30 08:54:16;;;;;;;2.88;1.85;;;14.60;99.90;;;;;;5000765;28;20053;-76
2023/09/30 08:56:47;;;;;;;6.15;2.13;;;14.70;99.90;;;;;;4984714;28;20057;-76
2023/09/30 08:59:14;;;;;;;5.82;1.25;;;14.70;99.90;;;;;;4984055;28;20041;-76
2023/09/30 09:01:40;;;;;;;4.10;1.33;;;14.80;99.90;;;;;;5001119;28;20046;-77
2023/09/30 09:04:07;;;;;;;6.30;1.45;;;14.80;99.90;;;;;;5001643;28;20185;-76
2023/09/30 09:06:32;;;;;;;3.13;1.02;;;14.80;99.90;;;;;;5000846;28;20038;-76
2023/09/30 09:09:18;;;;;;;7.15;1.27;;;14.90;99.90;;;;;;4999757;28;20522;-76
2023/09/30 09:11:45;;;;;;;1.05;0.95;;;14.90;99.90;;;;;;5000205;28;20113;-76
2023/09/30 09:14:10;;;;;;;3.15;0.98;;;15.00;99.90;;;;;;5000480;28;20061;-76
2023/09/30 09:16:36;;;;;;;6.07;1.48;;;15.00;99.90;;;;;;5000269;28;20243;-76
2023/09/30 09:19:14;;;;;;;2.15;1.10;;;15.10;99.90;;;;;;4997302;28;20046;-76
2023/09/30 09:21:55;;;;;;;5.85;2.17;;;15.20;99.90;;;;;;4995770;28;20052;-76
2023/09/30 09:24:42;;;;;;;5.57;1.85;;;15.20;99.90;;;;;;4999974;28;20069;-76
2023/09/30 09:27:09;;;;;;;1.98;1.35;;;15.30;99.90;;;;;;4983323;28;20576;-76
2023/09/30 09:29:36;;;;;;;7.20;1.10;;;15.30;99.90;;;;;;5005749;28;20142;-78
2023/09/30 09:32:12;;;;;;;2.15;0.90;;;15.40;99.90;;;;;;5012593;28;20042;-77
2023/09/30 09:34:39;;;;;;;2.92;0.85;;;15.40;99.90;;;;;;4997495;28;20140;-75
2023/09/30 09:37:14;;;;;;;6.80;1.23;;;15.50;99.90;;;;;;5000796;28;20056;-76
2023/09/30 09:39:39;;;;;;;2.25;0.73;;;15.50;99.90;;;;;;4999782;28;20073;-78
2023/09/30 09:42:06;;;;;;;5.40;0.85;;;15.50;99.90;;;;;;5000207;28;20080;-76
2023/09/30 09:44:35;;;;;;;7.38;1.05;;;15.60;99.90;;;;;;4999928;28;20037;-76
2023/09/30 09:47:04;;;;;;;5.38;1.52;;;15.60;99.90;;;;;;4995632;28;20077;-80
2023/09/30 09:49:32;;;;;;;5.57;0.80;;;15.70;99.90;;;;;;4979407;28;20039;-75
2023/09/30 09:52:00;;;;;;;3.38;0.85;;;15.70;99.90;;;;;;4992533;28;20631;-77
2023/09/30 09:54:27;;;;;;;1.77;0.77;;;15.70;99.90;;;;;;4997041;28;20336;-76
2023/09/30 09:56:56;;;;;;;3.33;1.42;;;15.80;99.90;;;;;;5005449;28;20054;-77
2023/09/30 09:59:23;;;;;;;2.88;0.82;;;15.80;99.90;;;;;;4987155;28;20052;-75
2023/09/30 10:01:49;;;;;;;4.93;1.50;;;15.90;99.90;;;;;;5002803;28;20045;-75
2023/09/30 10:04:15;;;;;;;3.38;1.15;;;15.80;99.90;;;;;;5002683;28;20392;-77
2023/09/30 10:06:44;;;;;;;3.33;0.80;;;15.90;99.90;;;;;;5003106;28;20038;-78
2023/09/30 10:09:11;;;;;;;3.90;1.00;;;15.90;99.90;;;;;;5000508;28;20127;-76
2023/09/30 10:11:40;;;;;;;2.20;1.02;;;15.90;99.90;;;;;;5003486;28;20161;-81
2023/09/30 10:14:11;;;;;;;5.47;1.85;;;15.90;99.90;;;;;;5003413;28;20057;-78
2023/09/30 10:16:37;;;;;;;3.92;0.75;;;16.00;99.90;;;;;;4994884;28;20099;-81
2023/09/30 10:19:10;;;;;;;3.67;0.80;;;16.00;99.90;;;;;;4985444;28;20042;-79
2023/09/30 10:21:37;;;;;;;8.13;0.73;;;16.00;99.90;;;;;;5004019;28;20497;-76
2023/09/30 10:24:35;;;;;;;5.15;1.17;;;16.00;99.90;;;;;;4984763;28;20053;-76
2023/09/30 10:27:29;;;;;;;1.52;0.70;;;16.00;99.90;;;;;;4969649;28;20046;-76
2023/09/30 10:30:01;;;;;;;2.30;1.00;;;16.00;99.90;;;;;;4978955;28;20088;-76
2023/09/30 10:32:56;;;;;;;0.93;0.70;;;16.10;99.90;;;;;;5002603;28;20084;-76
2023/09/30 10:35:31;;;;;;;4.82;1.55;;;16.10;99.90;;;;;;4980725;28;20049;-76
2023/09/30 10:38:23;;;;;;;3.05;0.90;;;16.20;99.90;;;;;;4998146;28;20051;-76
2023/09/30 10:40:51;;;;;;;6.40;2.80;;;16.20;99.90;;;;;;4978512;28;20564;-76
2023/09/30 10:43:31;;;;;;;3.80;0.60;;;16.30;99.90;;;;;;5002033;28;20053;-76
2023/09/30 10:45:56;;;;;;;1.35;0.63;;;16.30;99.90;;;;;;4986701;28;20076;-76
2023/09/30 10:48:25;;;;;;;1.88;0.50;;;16.30;99.90;;;;;;5001471;28;20618;-75
2023/09/30 10:51:01;;;;;;;2.53;0.88;;;16.40;99.90;;;;;;5002544;28;20100;-76
2023/09/30 10:53:28;;;;;;;2.67;0.57;;;16.30;99.90;;;;;;5013468;28;20057;-76
2023/09/30 10:55:58;;;;;;;4.50;1.52;;;16.40;99.90;;;;;;5008138;28;20041;-75
2023/09/30 10:58:50;;;;;;;3.65;0.80;;;16.40;99.90;;;;;;5002742;28;20049;-76
2023/09/30 11:01:23;;;;;;;3.50;1.23;;;16.40;99.90;;;;;;5001765;28;20077;-76
2023/09/30 11:03:53;;;;;;;3.95;1.23;;;16.40;99.90;;;;;;5001450;28;20292;-76
2023/09/30 11:06:21;;;;;;;4.68;1.10;;;16.40;99.90;;;;;;4982081;28;20515;-77
2023/09/30 11:08:58;;;;;;;3.97;1.02;;;16.40;99.90;;;;;;4998647;28;20400;-77
2023/09/30 11:11:48;;;;;;;4.63;0.75;;;16.40;99.90;;;;;;4997848;28;20044;-78
2023/09/30 11:14:29;;;;;;;2.88;0.70;;;16.40;99.90;;;;;;5008048;28;20061;-79
2023/09/30 11:16:57;;;;;;;3.60;0.70;;;16.50;99.90;;;;;;4999206;28;20061;-76
2023/09/30 11:19:23;;;;;;;1.05;0.52;;;16.50;99.90;;;;;;4998132;28;20549;-76
2023/09/30 11:21:54;;;;;;;6.40;0.73;;;16.50;99.90;;;;;;5000731;28;20050;-77
2023/09/30 11:24:21;;;;;;;2.65;0.77;;;16.60;99.90;;;;;;5000111;28;20045;-75
2023/09/30 11:26:47;;;;;;;1.20;0.60;;;16.60;99.90;;;;;;4983377;28;20072;-75
2023/09/30 11:29:17;;;;;;;4.13;1.00;;;16.60;99.90;;;;;;5000597;28;20041;-75
2023/09/30 11:31:50;;;;;;;1.73;1.20;;;16.60;99.90;;;;;;4997853;28;20041;-75
2023/09/30 11:34:17;;;;;;;5.40;1.42;;;16.60;99.90;;;;;;5000000;28;20129;-75
2023/09/30 11:36:50;;;;;;;3.35;1.02;;;16.60;99.90;;;;;;5002911;28;20076;-76
2023/09/30 11:39:26;;;;;;;2.15;0.85;;;16.70;99.90;;;;;;4983191;28;20038;-76
2023/09/30 11:41:52;;;;;;;1.25;0.50;;;16.70;99.90;;;;;;4982646;28;20045;-75
2023/09/30 11:44:18;;;;;;;3.97;0.73;;;16.70;99.90;;;;;;5000053;28;20376;-74
2023/09/30 11:46:53;;;;;;;2.45;0.63;;;16.70;99.90;;;;;;5001138;28;20349;-74
2023/09/30 11:49:31;;;;;;;2.90;0.50;;;16.70;99.90;;;;;;4999345;28;20231;-75
2023/09/30 11:51:59;;;;;;;4.30;0.80;;;16.70;99.90;;;;;;4999787;28;20132;-76
2023/09/30 11:54:37;;;;;;;1.90;0.82;;;16.80;99.90;;;;;;4998763;28;20042;-77
2023/09/30 11:57:03;;;;;;;1.80;0.50;;;16.80;99.90;;;;;;4999277;28;20104;-76
2023/09/30 11:59:29;;;;;;;3.83;1.15;;;16.80;99.90;;;;;;4999013;28;20069;-76
2023/09/30 12:01:55;;;;;;;3.50;0.75;;;16.80;99.90;;;;;;5000647;28;20131;-78
2023/09/30 12:04:21;;;;;;;3.35;0.70;;;16.80;99.90;;;;;;4998766;28;20038;-77
2023/09/30 12:06:50;;;;;;;2.72;0.73;;;16.80;99.90;;;;;;4993860;28;20047;-77
2023/09/30 12:09:22;;;;;;;8.23;1.02;;;16.90;99.90;;;;;;4972727;28;20041;-74
2023/09/30 12:11:51;;;;;;;6.68;1.10;;;16.80;99.90;;;;;;5000294;28;20156;-74
2023/09/30 12:14:17;;;;;;;1.17;0.80;;;16.80;99.90;;;;;;4999620;28;20062;-75
2023/09/30 12:16:45;;;;;;;1.63;0.45;;;16.80;99.90;;;;;;4998647;28;20265;-76
2023/09/30 12:19:13;;;;;;;2.72;0.82;;;16.90;99.90;;;;;;4998793;28;20065;-74
2023/09/30 12:21:40;;;;;;;4.90;1.25;;;16.80;99.90;;;;;;4999599;28;20408;-74
2023/09/30 12:24:07;;;;;;;7.72;1.15;;;16.80;99.90;;;;;;4982865;28;20054;-74
2023/09/30 12:26:34;;;;;;;3.35;0.77;;;16.90;99.90;;;;;;4982690;28;20133;-74
2023/09/30 12:28:59;;;;;;;4.90;0.63;;;16.90;99.90;;;;;;4983046;28;20050;-76
2023/09/30 12:31:25;;;;;;;3.45;0.65;;;16.90;99.90;;;;;;4999834;28;20228;-74
2023/09/30 12:33:51;;;;;;;2.15;0.82;;;17.00;99.90;;;;;;4998719;28;20084;-74
2023/09/30 12:36:18;;;;;;;2.40;1.02;;;17.00;99.90;;;;;;5000439;28;20046;-74
2023/09/30 12:38:44;;;;;;;2.42;0.75;;;17.00;99.90;;;;;;4998458;28;20046;-75
2023/09/30 12:41:10;;;;;;;4.18;0.65;;;17.00;99.90;;;;;;4999352;28;20132;-74
2023/09/30 12:43:35;;;;;;;3.63;1.05;;;17.00;99.90;;;;;;5000175;28;20137;-74
2023/09/30 12:46:01;;;;;;;3.08;1.02;;;16.90;99.90;;;;;;4996415;28;20049;-73
2023/09/30 12:48:27;;;;;;;4.82;1.33;;;16.90;99.90;;;;;;5010590;28;20081;-78
2023/09/30 12:50:52;;;;;;;4.43;0.70;;;16.90;99.90;;;;;;4999937;28;20109;-76